createdAt,value
2022-08-11T00:00:07.250Z,42.99
2022-08-11T00:02:54.664Z,43.38
2022-08-11T00:05:23.047Z,43.43
2022-08-11T00:07:54.295Z,44.17
2022-08-11T00:10:27.683Z,44.21
2022-08-11T00:13:00.491Z,43.89
2022-08-11T00:15:40.313Z,43.67
2022-08-11T00:18:09.697Z,43.54
2022-08-11T00:20:42.119Z,43.56
2022-08-11T00:23:12.537Z,44.00
2022-08-11T00:25:52.147Z,43.93
2022-08-11T00:28:32.956Z,43.99
2022-08-11T00:31:10.240Z,44.23
2022-08-11T00:33:45.566Z,44.22
2022-08-11T00:36:22.060Z,44.63
2022-08-11T00:38:52.994Z,44.42
2022-08-11T00:41:45.543Z,44.59
2022-08-11T00:44:31.183Z,44.87
2022-08-11T00:47:01.672Z,45.57
2022-08-11T00:50:03.761Z,45.78
2022-08-11T00:53:04.924Z,45.69
2022-08-11T00:55:55.684Z,45.63
2022-08-11T00:58:50.920Z,45.68
2022-08-11T01:01:20.967Z,45.58
2022-08-11T01:03:59.233Z,45.83
2022-08-11T01:06:49.755Z,45.58
2022-08-11T01:09:55.002Z,45.47
2022-08-11T01:12:44.264Z,45.67
2022-08-11T01:15:20.599Z,45.45
2022-08-11T01:18:17.020Z,45.39
2022-08-11T01:21:06.073Z,45.11
2022-08-11T01:24:13.499Z,45.33
2022-08-11T01:26:44.388Z,45.37
2022-08-11T01:29:39.475Z,45.68
2022-08-11T01:32:38.583Z,46.36
2022-08-11T01:35:30.735Z,46.35
2022-08-11T01:38:36.178Z,46.97
2022-08-11T01:41:48.223Z,46.75
2022-08-11T01:44:48.737Z,47.60
2022-08-11T01:47:54.321Z,47.66
2022-08-11T01:50:31.778Z,46.77
2022-08-11T01:53:11.117Z,46.79
2022-08-11T01:56:23.293Z,46.72
2022-08-11T01:59:11.045Z,46.29
2022-08-11T02:01:58.349Z,46.21
2022-08-11T02:04:31.777Z,46.29
2022-08-11T02:07:09.018Z,48.16
2022-08-11T02:10:35.311Z,47.80
2022-08-11T02:13:35.658Z,53.24
2022-08-11T02:16:29.607Z,54.44
2022-08-11T02:19:37.395Z,56.55
2022-08-11T02:22:33.458Z,55.35
2022-08-11T02:25:10.046Z,52.49
2022-08-11T02:27:45.892Z,51.19
2022-08-11T02:30:22.008Z,51.67
2022-08-11T02:33:23.745Z,52.33
2022-08-11T02:36:22.356Z,50.10
2022-08-11T02:39:00.982Z,47.33
2022-08-11T02:42:32.892Z,48.66
2022-08-11T02:45:12.531Z,48.24
2022-08-11T02:48:11.025Z,47.63
2022-08-11T02:50:57.204Z,46.83
2022-08-11T02:53:56.364Z,46.30
2022-08-11T02:56:52.494Z,45.75
2022-08-11T02:59:38.269Z,45.48
2022-08-11T03:02:24.745Z,45.79
2022-08-11T03:05:12.048Z,46.95
2022-08-11T03:08:03.607Z,48.65
2022-08-11T03:10:45.260Z,49.96
2022-08-11T03:13:44.378Z,50.80
2022-08-11T03:16:45.785Z,51.61
2022-08-11T03:19:28.338Z,51.92
2022-08-11T03:22:22.166Z,52.25
2022-08-11T03:25:13.148Z,53.00
2022-08-11T03:28:03.551Z,54.56
2022-08-11T03:31:09.134Z,55.82
2022-08-11T03:34:06.841Z,56.09
2022-08-11T03:37:14.970Z,55.51
2022-08-11T03:40:03.929Z,55.75
2022-08-11T03:42:54.976Z,56.40
2022-08-11T03:45:30.846Z,57.05
2022-08-11T03:48:09.359Z,57.65
2022-08-11T03:50:42.762Z,58.27
2022-08-11T03:53:30.633Z,58.35
2022-08-11T03:56:14.108Z,58.68
2022-08-11T03:59:20.560Z,59.50
2022-08-11T04:02:14.295Z,60.38
2022-08-11T04:05:20.359Z,60.82
2022-08-11T04:07:56.766Z,60.14
2022-08-11T04:10:39.309Z,60.07
2022-08-11T04:13:10.667Z,59.19
2022-08-11T04:16:13.605Z,59.84
2022-08-11T04:19:02.853Z,60.66
2022-08-11T04:21:52.518Z,59.66
2022-08-11T04:24:37.709Z,59.54
2022-08-11T04:27:36.864Z,59.97
2022-08-11T04:30:23.302Z,59.15
2022-08-11T04:33:24.583Z,59.89
2022-08-11T04:36:09.771Z,59.25
2022-08-11T04:38:58.797Z,58.71
2022-08-11T04:41:33.575Z,58.20
2022-08-11T04:44:48.426Z,58.31
2022-08-11T04:48:01.731Z,57.62
2022-08-11T04:51:16.596Z,58.29
2022-08-11T04:54:27.799Z,59.61
2022-08-11T04:57:23.790Z,59.47
2022-08-11T05:00:15.740Z,61.31
2022-08-11T05:03:01.626Z,61.65
2022-08-11T05:05:56.226Z,62.42
2022-08-11T05:08:50.331Z,61.63
2022-08-11T05:11:45.097Z,59.78
2022-08-11T05:14:31.310Z,58.35
2022-08-11T05:17:53.057Z,57.26
2022-08-11T05:20:41.975Z,56.80
2022-08-11T05:23:29.558Z,55.79
2022-08-11T05:26:46.183Z,54.66
2022-08-11T05:29:46.269Z,54.25
2022-08-11T05:32:36.464Z,53.85
2022-08-11T05:35:07.558Z,53.90
2022-08-11T05:37:39.768Z,52.34
2022-08-11T05:40:33.114Z,51.61
2022-08-11T05:43:25.567Z,50.09
2022-08-11T05:46:29.792Z,49.13
2022-08-11T05:49:16.036Z,47.03
2022-08-11T05:52:05.711Z,44.91
2022-08-11T05:55:06.342Z,44.48
2022-08-11T05:57:48.947Z,42.97
2022-08-11T06:00:20.917Z,42.27
2022-08-11T06:02:59.179Z,42.32
2022-08-11T06:05:43.405Z,42.23
2022-08-11T06:08:14.037Z,41.04
2022-08-11T06:10:44.265Z,41.40
2022-08-11T06:13:17.058Z,42.21
2022-08-11T06:15:52.307Z,40.46
2022-08-11T06:18:20.921Z,40.44
2022-08-11T06:20:51.492Z,38.03
2022-08-11T06:23:23.948Z,36.45
2022-08-11T06:25:53.812Z,35.63
2022-08-11T06:28:37.631Z,34.92
2022-08-11T06:31:12.921Z,33.38
2022-08-11T06:34:06.938Z,33.82
2022-08-11T06:36:56.170Z,34.10
2022-08-11T06:39:29.333Z,33.00
2022-08-11T06:42:09.273Z,32.59
2022-08-11T06:44:59.366Z,31.55
2022-08-11T06:47:27.823Z,31.00
2022-08-11T06:50:16.933Z,32.07
2022-08-11T06:52:47.008Z,31.88
2022-08-11T06:55:57.142Z,30.68
2022-08-11T06:58:54.664Z,30.16
2022-08-11T07:01:49.436Z,30.52
2022-08-11T07:04:48.229Z,30.78
2022-08-11T07:07:49.603Z,30.11
2022-08-11T07:10:56.992Z,30.08
2022-08-11T07:13:45.985Z,29.08
2022-08-11T07:16:25.010Z,28.37
2022-08-11T07:19:25.573Z,28.28
2022-08-11T07:22:14.833Z,27.34
2022-08-11T07:25:09.825Z,27.71
2022-08-11T07:28:05.162Z,28.25
2022-08-11T07:30:37.626Z,27.00
2022-08-11T07:33:06.916Z,26.66
2022-08-11T07:35:38.799Z,27.34
2022-08-11T07:38:09.761Z,27.00
2022-08-11T07:40:38.777Z,26.78
2022-08-11T07:43:07.155Z,26.79
2022-08-11T07:46:00.557Z,26.02
2022-08-11T07:48:47.802Z,25.27
2022-08-11T07:51:41.147Z,25.72
2022-08-11T07:54:17.244Z,25.68
2022-08-11T07:56:54.732Z,25.14
2022-08-11T08:00:04.367Z,24.84
2022-08-11T08:03:03.378Z,24.41
2022-08-11T08:05:49.838Z,24.80
2022-08-11T08:08:36.314Z,24.87
2022-08-11T08:11:27.417Z,24.82
2022-08-11T08:14:14.287Z,24.77
2022-08-11T08:17:01.886Z,24.45
2022-08-11T08:19:31.909Z,24.59
2022-08-11T08:22:07.107Z,24.67
2022-08-11T08:24:49.025Z,25.28
2022-08-11T08:27:18.907Z,24.76
2022-08-11T08:30:05.358Z,24.19
2022-08-11T08:32:35.363Z,25.62
2022-08-11T08:35:05.110Z,24.62
2022-08-11T08:37:47.197Z,24.63
2022-08-11T08:40:15.472Z,24.96
2022-08-11T08:42:51.715Z,25.05
2022-08-11T08:45:20.792Z,24.29
2022-08-11T08:47:59.215Z,23.85
2022-08-11T08:50:52.034Z,23.11
2022-08-11T08:53:29.581Z,22.98
2022-08-11T08:56:01.553Z,22.83
2022-08-11T08:58:30.722Z,22.54
2022-08-11T09:01:00.998Z,22.13
2022-08-11T09:04:04.864Z,23.29
2022-08-11T09:06:17.727Z,22.48
2022-08-11T09:08:46.664Z,22.87
2022-08-11T09:11:42.457Z,22.34
2022-08-11T09:14:15.093Z,23.18
2022-08-11T09:16:44.434Z,23.01
2022-08-11T09:19:17.599Z,23.20
2022-08-11T09:22:09.593Z,24.21
2022-08-11T09:24:58.427Z,23.17
2022-08-11T09:27:26.955Z,24.05
2022-08-11T09:29:55.757Z,23.33
2022-08-11T09:32:24.537Z,23.21
2022-08-11T09:34:54.078Z,22.99
2022-08-11T09:37:54.945Z,24.18
2022-08-11T09:40:33.483Z,23.26
2022-08-11T09:43:29.103Z,23.21
2022-08-11T09:45:58.778Z,23.09
2022-08-11T09:48:30.389Z,22.47
2022-08-11T09:51:01.529Z,23.05
2022-08-11T09:53:40.770Z,23.20
2022-08-11T09:56:47.882Z,21.37
2022-08-11T09:59:20.890Z,20.80
2022-08-11T10:01:50.930Z,20.90
2022-08-11T10:04:34.767Z,20.18
2022-08-11T10:07:07.078Z,19.93
2022-08-11T10:09:49.247Z,18.73
2022-08-11T10:12:26.025Z,19.06
2022-08-11T10:15:17.546Z,19.01
2022-08-11T10:18:07.634Z,19.78
2022-08-11T10:20:38.148Z,19.98
2022-08-11T10:26:09.727Z,17.64
2022-08-11T10:29:02.176Z,16.92
2022-08-11T10:31:56.783Z,18.71
2022-08-11T10:34:26.650Z,17.71
2022-08-11T10:36:58.479Z,17.38
2022-08-11T10:39:27.155Z,18.72
2022-08-11T10:42:25.797Z,17.94
2022-08-11T10:44:58.847Z,19.18
2022-08-11T10:47:35.720Z,18.37
2022-08-11T10:50:26.668Z,17.84
2022-08-11T10:53:17.368Z,18.52
2022-08-11T10:56:05.914Z,16.88
2022-08-11T10:58:45.551Z,16.70
2022-08-11T11:01:15.760Z,17.03
2022-08-11T11:03:45.484Z,17.99
2022-08-11T11:06:29.201Z,19.56
2022-08-11T11:09:08.867Z,18.58
2022-08-11T11:12:04.428Z,17.86
2022-08-11T11:14:58.819Z,17.08
2022-08-11T11:17:56.161Z,17.43
2022-08-11T11:20:35.758Z,17.59
2022-08-11T11:23:10.536Z,17.49
2022-08-11T11:26:27.088Z,15.95
2022-08-11T11:29:10.839Z,14.83
2022-08-11T11:31:59.278Z,15.19
2022-08-11T11:35:04.564Z,15.74
2022-08-11T11:37:36.920Z,16.65
2022-08-11T11:40:13.432Z,17.46
2022-08-11T11:42:45.011Z,18.07
2022-08-11T11:45:22.696Z,16.62
2022-08-11T11:47:56.405Z,15.91
2022-08-11T11:50:32.988Z,14.94
2022-08-11T11:53:06.511Z,16.41
2022-08-11T11:55:35.259Z,15.16
2022-08-11T11:58:24.042Z,15.01
2022-08-11T12:01:11.886Z,15.00
2022-08-11T12:03:41.245Z,15.52
2022-08-11T12:06:12.201Z,17.33
2022-08-11T12:08:40.961Z,15.95
2022-08-11T12:11:30.863Z,15.66
2022-08-11T12:14:03.102Z,16.49
2022-08-11T12:16:36.788Z,15.78
2022-08-11T12:19:08.275Z,15.92
2022-08-11T12:21:38.058Z,16.08
2022-08-11T12:24:29.294Z,15.34
2022-08-11T12:27:17.979Z,16.58
2022-08-11T12:29:55.517Z,15.92
2022-08-11T12:32:27.110Z,15.59
2022-08-11T12:34:57.259Z,15.00
2022-08-11T12:37:30.776Z,15.16
2022-08-11T12:40:49.424Z,14.68
2022-08-11T12:43:44.065Z,14.86
2022-08-11T12:46:22.277Z,14.46
2022-08-11T12:49:16.466Z,16.02
2022-08-11T12:52:11.442Z,15.71
2022-08-11T12:54:52.422Z,13.93
2022-08-11T12:58:01.718Z,14.22
2022-08-11T13:00:50.591Z,14.67
2022-08-11T13:03:41.345Z,12.90
2022-08-11T13:06:10.837Z,11.13
2022-08-11T13:08:40.769Z,13.17
2022-08-11T13:11:54.503Z,11.95
2022-08-11T13:14:18.226Z,12.35
2022-08-11T13:17:05.325Z,12.99
2022-08-11T13:19:34.728Z,12.89
2022-08-11T13:22:06.517Z,13.58
2022-08-11T13:24:35.935Z,13.11
2022-08-11T13:27:04.027Z,13.24
2022-08-11T13:29:31.825Z,12.28
2022-08-11T13:32:00.528Z,10.95
2022-08-11T13:34:33.337Z,12.04
2022-08-11T13:37:05.222Z,12.10
2022-08-11T13:39:36.096Z,12.02
2022-08-11T13:42:05.382Z,13.45
2022-08-11T13:44:38.247Z,13.35
2022-08-11T13:47:08.779Z,12.98
2022-08-11T13:49:40.311Z,13.10
2022-08-11T13:52:16.897Z,12.24
2022-08-11T13:54:48.274Z,12.31
2022-08-11T13:58:09.023Z,12.66
2022-08-11T14:00:13.037Z,11.85
2022-08-11T14:02:54.765Z,14.20
2022-08-11T14:05:28.826Z,14.62
2022-08-11T14:08:02.594Z,13.30
2022-08-11T14:10:33.623Z,12.84
2022-08-11T14:13:29.016Z,12.81
2022-08-11T14:16:18.690Z,13.49
2022-08-11T14:18:51.661Z,13.05
2022-08-11T14:21:43.177Z,13.02
2022-08-11T14:24:13.042Z,14.37
2022-08-11T14:26:43.667Z,12.79
2022-08-11T14:29:14.372Z,12.03
2022-08-11T14:31:49.653Z,11.18
2022-08-11T14:34:21.267Z,12.61
2022-08-11T14:36:57.004Z,12.91
2022-08-11T14:39:27.707Z,12.82
2022-08-11T14:42:20.644Z,12.41
2022-08-11T14:45:20.098Z,11.08
2022-08-11T14:48:04.471Z,12.01
2022-08-11T14:50:34.929Z,13.97
2022-08-11T14:53:06.303Z,15.87
2022-08-11T14:55:59.392Z,17.85
2022-08-11T14:58:30.865Z,19.54
2022-08-11T15:01:01.378Z,17.07
2022-08-11T15:03:33.690Z,15.00
2022-08-11T15:06:05.106Z,15.24
2022-08-11T15:08:54.763Z,14.82
2022-08-11T15:11:43.983Z,14.07
2022-08-11T15:14:13.680Z,12.81
2022-08-11T15:17:02.959Z,13.76
2022-08-11T15:19:40.193Z,13.41
2022-08-11T15:22:29.230Z,13.06
2022-08-11T15:25:00.254Z,11.83
2022-08-11T15:27:48.876Z,12.00
2022-08-11T15:30:40.879Z,11.54
2022-08-11T15:33:35.819Z,11.43
2022-08-11T15:36:25.854Z,11.04
2022-08-11T15:39:18.329Z,10.78
2022-08-11T15:42:21.813Z,10.76
2022-08-11T15:45:19.258Z,11.16
2022-08-11T15:48:05.103Z,12.75
2022-08-11T15:50:38.905Z,12.05
2022-08-11T15:53:18.060Z,11.91
2022-08-11T15:55:48.750Z,11.79
2022-08-11T15:58:38.062Z,13.60
2022-08-11T16:01:26.311Z,13.13
2022-08-11T16:04:13.331Z,13.02
2022-08-11T16:07:13.857Z,13.61
2022-08-11T16:09:47.606Z,13.49
2022-08-11T16:12:23.222Z,13.82
2022-08-11T16:15:20.250Z,14.05
2022-08-11T16:17:53.549Z,14.05
2022-08-11T16:20:23.923Z,14.84
2022-08-11T16:23:02.043Z,15.11
2022-08-11T16:27:06.061Z,14.54
2022-08-11T16:28:25.388Z,15.16
2022-08-11T16:30:54.977Z,15.41
2022-08-11T16:33:48.547Z,15.15
2022-08-11T16:36:32.921Z,15.77
2022-08-11T16:39:03.209Z,16.25
2022-08-11T16:41:51.738Z,16.20
2022-08-11T16:44:39.921Z,16.33
2022-08-11T16:47:12.220Z,15.75
2022-08-11T16:49:52.707Z,16.21
2022-08-11T16:52:23.004Z,16.29
2022-08-11T16:54:52.708Z,16.15
2022-08-11T16:57:44.563Z,15.99
2022-08-11T17:00:17.585Z,16.55
2022-08-11T17:03:07.906Z,16.49
2022-08-11T17:05:56.190Z,16.71
2022-08-11T17:08:57.906Z,17.23
2022-08-11T17:11:52.549Z,16.89
2022-08-11T17:14:35.356Z,17.26
2022-08-11T17:17:28.940Z,17.73
2022-08-11T17:20:42.089Z,18.26
2022-08-11T17:23:12.949Z,18.63
2022-08-11T17:26:03.292Z,19.58
2022-08-11T17:28:30.259Z,21.04
2022-08-11T17:31:18.368Z,21.03
2022-08-11T17:34:10.828Z,21.89
2022-08-11T17:36:45.062Z,22.09
2022-08-11T17:39:15.214Z,22.69
2022-08-11T17:42:03.407Z,23.31
2022-08-11T17:44:51.701Z,23.64
2022-08-11T17:47:38.904Z,24.29
2022-08-11T17:50:09.237Z,24.19
2022-08-11T17:53:04.825Z,24.70
2022-08-11T17:55:53.888Z,24.88
2022-08-11T17:58:43.536Z,25.11
2022-08-11T18:01:12.648Z,24.81
2022-08-11T18:03:53.276Z,25.29
2022-08-11T18:06:34.740Z,25.63
2022-08-11T18:09:26.633Z,25.58
2022-08-11T18:12:14.615Z,25.73
2022-08-11T18:15:05.821Z,26.27
2022-08-11T18:17:54.363Z,26.41
2022-08-11T18:20:43.296Z,26.59
2022-08-11T18:23:45.611Z,26.57
2022-08-11T18:26:38.440Z,26.61
2022-08-11T18:29:26.250Z,26.92
2022-08-11T18:32:21.901Z,27.16
2022-08-11T18:35:13.468Z,28.06
2022-08-11T18:38:05.484Z,27.96
2022-08-11T18:40:54.515Z,28.10
2022-08-11T18:43:43.882Z,27.77
2022-08-11T18:46:33.674Z,27.71
2022-08-11T18:50:01.795Z,28.25
2022-08-11T18:52:35.715Z,28.68
2022-08-11T18:55:27.283Z,28.43
2022-08-11T18:58:16.180Z,28.72
2022-08-11T19:01:05.637Z,29.20
2022-08-11T19:03:54.841Z,28.70
2022-08-11T19:06:53.813Z,28.97
2022-08-11T19:09:40.088Z,29.76
2022-08-11T19:12:29.105Z,31.15
2022-08-11T19:15:16.883Z,30.24
2022-08-11T19:18:04.888Z,30.65
2022-08-11T19:20:53.899Z,30.82
2022-08-11T19:23:49.938Z,32.23
2022-08-11T19:26:36.684Z,31.12
2022-08-11T19:30:05.046Z,29.73
2022-08-11T19:32:31.932Z,29.58
2022-08-11T19:35:20.248Z,29.74
2022-08-11T19:38:07.701Z,29.87
2022-08-11T19:40:57.582Z,29.95
2022-08-11T19:43:46.112Z,29.75
2022-08-11T19:46:32.837Z,29.70
2022-08-11T19:49:20.799Z,29.84
2022-08-11T19:58:21.109Z,31.27
2022-08-11T20:01:08.422Z,31.64
2022-08-11T20:03:54.948Z,31.30
2022-08-11T20:06:42.518Z,31.03
2022-08-11T20:10:04.822Z,30.59
2022-08-11T20:12:38.548Z,30.63
2022-08-11T20:15:27.127Z,31.04
2022-08-11T20:18:15.316Z,30.81
2022-08-11T20:21:02.605Z,30.81
2022-08-11T20:24:08.928Z,31.83
2022-08-11T20:26:55.751Z,31.79
2022-08-11T20:29:47.247Z,32.15
2022-08-11T20:32:35.200Z,31.94
2022-08-11T20:35:23.815Z,31.45
2022-08-11T20:38:13.850Z,31.36
2022-08-11T20:41:01.729Z,31.67
2022-08-11T20:44:06.533Z,31.49
2022-08-11T20:46:57.866Z,31.52
2022-08-11T20:49:53.613Z,31.56
2022-08-11T20:52:47.402Z,31.78
2022-08-11T20:55:51.150Z,32.23
2022-08-11T20:59:13.710Z,31.99
2022-08-11T21:01:49.065Z,31.87
2022-08-11T21:04:55.030Z,31.67
2022-08-11T21:07:44.428Z,32.05
2022-08-11T21:10:47.005Z,32.02
2022-08-11T21:13:34.343Z,31.01
2022-08-11T21:16:26.116Z,30.94
2022-08-11T21:20:00.533Z,31.60
2022-08-11T21:22:59.547Z,32.07
2022-08-11T21:26:01.516Z,32.16
2022-08-11T21:28:50.044Z,31.99
2022-08-11T21:31:37.880Z,32.22
2022-08-11T21:34:27.210Z,32.18
2022-08-11T21:37:13.694Z,32.13
2022-08-11T21:40:02.373Z,31.62
2022-08-11T21:42:52.691Z,31.58
2022-08-11T21:45:39.590Z,32.37
2022-08-11T21:48:28.230Z,33.31
2022-08-11T21:51:14.248Z,34.02
2022-08-11T21:54:01.668Z,34.92
2022-08-11T21:56:49.927Z,41.67
2022-08-11T21:59:43.385Z,58.54
2022-08-11T22:02:29.829Z,74.19
2022-08-11T22:05:16.690Z,75.97
2022-08-11T22:08:02.985Z,78.03
2022-08-11T22:10:49.539Z,74.07
2022-08-11T22:13:36.090Z,75.86
2022-08-11T22:16:23.401Z,72.96
2022-08-11T22:19:10.534Z,73.19
2022-08-11T22:22:02.636Z,79.34
2022-08-11T22:24:56.264Z,84.89
2022-08-11T22:27:43.940Z,86.80
2022-08-11T22:30:31.004Z,86.86
2022-08-11T22:33:24.378Z,79.51
2022-08-11T22:36:14.567Z,89.38
2022-08-11T22:39:03.593Z,100.00
2022-08-11T22:41:50.524Z,93.15
2022-08-11T22:44:37.964Z,93.47
2022-08-11T22:47:33.403Z,91.87
2022-08-11T22:50:28.729Z,100.00
2022-08-11T22:53:15.920Z,100.00
2022-08-11T22:56:02.743Z,100.00
2022-08-11T22:58:49.960Z,99.67
2022-08-11T23:01:37.403Z,99.36
2022-08-11T23:04:25.468Z,93.89
2022-08-11T23:07:13.640Z,96.56
2022-08-11T23:10:20.275Z,97.86
2022-08-11T23:13:08.241Z,98.48
2022-08-11T23:15:55.144Z,100.00
2022-08-11T23:18:42.727Z,100.00
2022-08-11T23:21:33.532Z,100.00
2022-08-11T23:24:21.217Z,100.00
2022-08-11T23:27:07.460Z,100.00
2022-08-11T23:29:54.525Z,100.00
2022-08-11T23:32:45.634Z,100.00
2022-08-11T23:35:39.131Z,100.00
2022-08-11T23:38:37.785Z,100.00
2022-08-11T23:41:24.080Z,100.00
2022-08-11T23:44:11.368Z,100.00
2022-08-11T23:46:59.636Z,100.00
2022-08-11T23:49:47.631Z,100.00
2022-08-11T23:52:35.839Z,100.00
2022-08-11T23:55:22.790Z,99.38
2022-08-11T23:58:10.049Z,96.03
